Time;durP1;ratioP1;P1;durP2;ratioP2;P2;SDS_P1;SDS_P2;PMS_P1;PMS_P2;Temp;Humidity;BMP_temperature;BMP_pressure;BME280_temperature;BME280_humidity;BME280_pressure;Samples;Min_cycle;Max_cycle;Signal;HPM_P1;HPM_P2
2023/04/29 00:01:26;;;;;;;3.40;2.17;;;12.20;98.00;;;;;;5034501;28;20463;-66
2023/04/29 00:03:53;;;;;;;3.83;2.23;;;12.20;98.00;;;;;;5034487;28;20455;-66
2023/04/29 00:06:20;;;;;;;5.70;2.30;;;12.20;98.00;;;;;;5034576;28;20461;-66
2023/04/29 00:08:47;;;;;;;6.00;2.73;;;12.20;98.00;;;;;;5034889;28;20459;-66
2023/04/29 00:11:14;;;;;;;3.57;2.30;;;12.20;98.00;;;;;;5033079;28;20458;-66
2023/04/29 00:13:42;;;;;;;3.40;2.30;;;12.10;98.00;;;;;;5035061;28;20465;-66
2023/04/29 00:16:11;;;;;;;2.80;2.13;;;12.20;98.00;;;;;;5034536;28;20459;-66
2023/04/29 00:18:39;;;;;;;4.03;2.27;;;12.10;98.00;;;;;;5034600;28;20463;-66
2023/04/29 00:21:06;;;;;;;3.77;2.30;;;12.10;98.00;;;;;;5034096;28;20452;-65
2023/04/29 00:23:34;;;;;;;7.50;2.33;;;12.10;98.00;;;;;;5034378;28;20488;-66
2023/04/29 00:26:01;;;;;;;3.73;2.40;;;12.10;98.00;;;;;;5033944;28;20465;-66
2023/04/29 00:28:29;;;;;;;3.20;1.90;;;12.10;98.00;;;;;;5034188;28;20849;-66
2023/04/29 00:30:56;;;;;;;3.90;2.37;;;11.90;98.00;;;;;;5033849;28;20476;-66
2023/04/29 00:33:25;;;;;;;2.37;1.90;;;11.80;98.00;;;;;;5034012;28;20810;-66
2023/04/29 00:35:52;;;;;;;3.47;2.20;;;11.80;98.00;;;;;;5033571;28;20449;-66
2023/04/29 00:38:19;;;;;;;5.27;2.50;;;11.80;98.00;;;;;;5033796;28;20949;-66
2023/04/29 00:40:48;;;;;;;4.00;2.40;;;11.80;98.00;;;;;;5033753;28;20520;-66
2023/04/29 00:43:15;;;;;;;4.87;2.60;;;11.70;98.00;;;;;;5033652;28;20485;-66
2023/04/29 00:45:42;;;;;;;6.10;2.87;;;11.60;98.00;;;;;;5032391;28;20469;-66
2023/04/29 00:48:09;;;;;;;4.03;2.50;;;11.60;98.00;;;;;;5033491;28;20508;-66
2023/04/29 00:50:38;;;;;;;4.07;2.40;;;11.60;98.00;;;;;;5033700;28;20464;-65
2023/04/29 00:53:05;;;;;;;5.47;2.70;;;11.60;98.00;;;;;;5033485;28;20983;-66
2023/04/29 00:55:34;;;;;;;3.67;1.87;;;11.50;98.00;;;;;;5033527;28;20823;-66
2023/04/29 00:58:03;;;;;;;3.43;2.20;;;11.60;98.00;;;;;;5033674;28;20861;-66
2023/04/29 01:00:30;;;;;;;2.80;2.20;;;11.70;98.00;;;;;;5033076;28;20455;-66
2023/04/29 01:02:58;;;;;;;3.47;2.03;;;11.60;98.00;;;;;;5033398;28;21037;-66
2023/04/29 01:05:25;;;;;;;4.13;2.20;;;11.40;98.00;;;;;;5033340;28;20517;-66
2023/04/29 01:08:12;;;;;;;4.10;2.43;;;11.40;98.00;;;;;;5033567;28;20455;-66
2023/04/29 01:10:45;;;;;;;3.77;2.00;;;11.30;98.00;;;;;;5033771;28;20459;-66
2023/04/29 01:13:17;;;;;;;3.43;2.13;;;11.30;98.00;;;;;;5033448;28;21175;-66
2023/04/29 01:15:54;;;;;;;3.73;2.63;;;11.10;98.00;;;;;;5033639;28;20451;-66
2023/04/29 01:18:25;;;;;;;2.23;1.77;;;11.20;98.00;;;;;;5033384;28;20461;-66
2023/04/29 01:20:52;;;;;;;4.73;2.30;;;11.10;98.00;;;;;;5033295;28;20902;-66
2023/04/29 01:23:22;;;;;;;2.80;1.73;;;11.10;98.00;;;;;;5031476;28;20485;-66
2023/04/29 01:25:50;;;;;;;2.70;1.90;;;11.20;98.00;;;;;;5032198;28;20451;-66
2023/04/29 01:28:28;;;;;;;2.33;1.77;;;11.10;98.00;;;;;;5032304;28;20864;-66
2023/04/29 01:31:00;;;;;;;3.00;2.23;;;11.10;98.00;;;;;;5032279;28;20463;-65
2023/04/29 01:33:35;;;;;;;2.60;2.00;;;11.10;98.00;;;;;;5032794;28;20561;-66
2023/04/29 01:36:14;;;;;;;2.90;1.97;;;11.20;98.00;;;;;;5032744;28;20464;-66
2023/04/29 01:38:49;;;;;;;1.97;1.60;;;11.30;98.00;;;;;;5032713;28;20456;-66
2023/04/29 01:41:27;;;;;;;4.03;2.10;;;11.30;98.00;;;;;;5032715;28;20938;-66
2023/04/29 01:43:58;;;;;;;3.30;1.97;;;11.20;98.00;;;;;;5032359;28;20499;-66
2023/04/29 01:46:25;;;;;;;4.60;2.23;;;11.20;98.00;;;;;;5032439;28;20472;-66
2023/04/29 01:48:53;;;;;;;3.43;1.97;;;11.10;98.00;;;;;;5032009;28;20951;-66
2023/04/29 01:51:21;;;;;;;2.37;1.87;;;11.10;98.00;;;;;;5032444;28;20487;-65
2023/04/29 01:53:48;;;;;;;3.47;2.00;;;11.10;98.00;;;;;;5032561;28;20477;-66
2023/04/29 01:56:16;;;;;;;3.27;2.20;;;11.10;98.00;;;;;;5032601;28;20468;-66
2023/04/29 01:58:43;;;;;;;2.83;1.80;;;11.10;98.00;;;;;;5032487;28;20911;-66
2023/04/29 02:01:13;;;;;;;4.30;1.97;;;11.10;98.00;;;;;;5032229;28;20457;-66
2023/04/29 02:03:40;;;;;;;3.00;2.00;;;11.00;98.00;;;;;;5031096;28;20544;-65
2023/04/29 02:06:07;;;;;;;3.13;1.87;;;11.00;98.00;;;;;;5032294;28;20949;-66
2023/04/29 02:08:34;;;;;;;3.10;2.00;;;11.00;98.00;;;;;;5032505;28;20469;-66
2023/04/29 02:11:01;;;;;;;3.03;2.17;;;11.00;98.00;;;;;;5032738;28;20480;-65
2023/04/29 02:13:30;;;;;;;2.80;1.80;;;11.10;98.00;;;;;;5032401;28;20452;-66
2023/04/29 02:15:57;;;;;;;3.37;2.03;;;11.10;98.00;;;;;;5031872;28;20468;-66
2023/04/29 02:18:24;;;;;;;4.10;2.17;;;11.10;98.00;;;;;;5031138;28;20466;-66
2023/04/29 02:20:53;;;;;;;2.90;2.10;;;11.20;98.00;;;;;;5032307;28;20459;-66
2023/04/29 02:23:21;;;;;;;2.03;1.70;;;11.10;98.00;;;;;;5032027;28;20487;-66
2023/04/29 02:25:48;;;;;;;3.60;1.77;;;11.10;98.00;;;;;;5031993;28;20455;-66
2023/04/29 02:28:16;;;;;;;3.40;2.10;;;11.10;98.00;;;;;;5030825;28;20491;-66
2023/04/29 02:30:45;;;;;;;2.47;1.90;;;11.10;98.00;;;;;;5030905;28;20460;-66
2023/04/29 02:33:12;;;;;;;2.27;1.77;;;11.00;98.00;;;;;;5031771;28;20972;-66
2023/04/29 02:35:39;;;;;;;3.20;2.00;;;11.00;98.00;;;;;;5032134;28;20468;-66
2023/04/29 02:38:06;;;;;;;2.40;1.90;;;11.00;98.00;;;;;;5031782;28;20465;-66
2023/04/29 02:40:34;;;;;;;2.33;1.70;;;11.10;98.00;;;;;;5031870;28;20452;-66
2023/04/29 02:43:01;;;;;;;2.37;1.60;;;11.10;98.00;;;;;;5031936;28;20483;-66
2023/04/29 02:45:28;;;;;;;2.27;1.73;;;11.00;98.00;;;;;;5031635;28;20610;-66
2023/04/29 02:47:57;;;;;;;3.07;1.80;;;11.00;98.00;;;;;;5032058;28;20458;-66
2023/04/29 02:50:25;;;;;;;1.80;1.53;;;10.90;98.00;;;;;;5031709;28;20465;-66
2023/04/29 02:52:52;;;;;;;2.70;1.53;;;11.00;98.00;;;;;;5031773;28;21014;-66
2023/04/29 02:55:19;;;;;;;2.30;1.80;;;11.00;98.00;;;;;;5030431;28;20459;-66
2023/04/29 02:57:46;;;;;;;2.93;1.80;;;10.90;98.00;;;;;;5031904;28;20460;-66
2023/04/29 03:00:13;;;;;;;4.30;2.07;;;11.00;98.00;;;;;;5032343;28;20463;-66
2023/04/29 03:02:42;;;;;;;3.00;1.90;;;11.00;98.00;;;;;;5035882;28;20490;-66
2023/04/29 03:05:11;;;;;;;3.00;2.03;;;10.90;98.00;;;;;;5035843;28;20463;-66
2023/04/29 03:07:38;;;;;;;3.67;2.10;;;10.90;98.00;;;;;;5035806;28;20546;-66
2023/04/29 03:10:06;;;;;;;2.97;1.93;;;11.00;98.00;;;;;;5035398;28;20534;-66
2023/04/29 03:12:33;;;;;;;3.07;2.10;;;11.00;98.00;;;;;;5035732;28;20516;-66
2023/04/29 03:15:00;;;;;;;2.17;1.77;;;10.90;98.00;;;;;;5035458;28;20888;-66
2023/04/29 03:17:27;;;;;;;3.20;2.10;;;10.90;98.00;;;;;;5035381;28;20504;-66
2023/04/29 03:19:54;;;;;;;2.93;1.73;;;11.00;98.00;;;;;;5035341;28;20453;-66
2023/04/29 03:22:23;;;;;;;4.07;1.90;;;11.10;98.00;;;;;;5035249;28;20463;-66
2023/04/29 03:24:50;;;;;;;2.80;1.90;;;11.10;98.00;;;;;;5035491;28;20467;-66
2023/04/29 03:27:17;;;;;;;2.80;1.70;;;11.10;98.00;;;;;;5035097;28;20447;-66
2023/04/29 03:29:44;;;;;;;2.13;1.70;;;11.10;98.00;;;;;;5035123;28;20461;-66
2023/04/29 03:32:11;;;;;;;1.90;1.53;;;11.10;98.00;;;;;;5034264;28;20469;-66
2023/04/29 03:34:38;;;;;;;1.97;1.47;;;11.10;98.00;;;;;;5034773;28;20548;-66
2023/04/29 03:37:05;;;;;;;2.13;1.50;;;11.00;98.00;;;;;;5033902;28;20459;-66
2023/04/29 03:39:34;;;;;;;2.50;1.77;;;10.80;98.00;;;;;;5035213;28;20461;-66
2023/04/29 03:42:01;;;;;;;2.47;1.63;;;10.70;98.00;;;;;;5035300;28;20949;-66
2023/04/29 03:44:29;;;;;;;3.27;1.80;;;10.50;98.00;;;;;;5034638;28;21008;-66
2023/04/29 03:46:57;;;;;;;2.33;1.50;;;10.40;98.00;;;;;;5033885;28;20438;-66
2023/04/29 03:49:24;;;;;;;2.33;1.67;;;10.50;98.00;;;;;;5034822;28;20464;-66
2023/04/29 03:51:51;;;;;;;2.10;1.57;;;10.60;98.00;;;;;;5034844;28;20454;-65
2023/04/29 03:54:19;;;;;;;2.20;1.53;;;10.50;98.00;;;;;;5034786;28;20482;-66
2023/04/29 03:56:47;;;;;;;2.10;1.73;;;10.60;98.00;;;;;;5034911;28;20468;-66
2023/04/29 03:59:23;;;;;;;1.80;1.40;;;10.40;98.00;;;;;;5035079;28;21027;-66
2023/04/29 04:01:52;;;;;;;2.03;1.37;;;10.40;98.00;;;;;;5034749;28;20476;-66
2023/04/29 04:04:20;;;;;;;2.17;1.50;;;10.40;98.00;;;;;;5033590;28;20488;-66
2023/04/29 04:06:50;;;;;;;1.70;1.47;;;10.30;98.00;;;;;;5034501;28;20931;-66
2023/04/29 04:09:17;;;;;;;1.87;1.53;;;10.30;98.00;;;;;;5034433;28;20479;-66
2023/04/29 04:11:45;;;;;;;2.70;1.60;;;10.30;98.00;;;;;;5033829;28;20460;-66
2023/04/29 04:14:13;;;;;;;1.63;1.50;;;10.30;98.00;;;;;;5034418;28;20448;-66
2023/04/29 04:16:40;;;;;;;2.60;1.40;;;10.30;98.00;;;;;;5034171;28;20520;-66
2023/04/29 04:19:07;;;;;;;1.70;1.43;;;10.30;98.00;;;;;;5034348;28;20490;-65
2023/04/29 04:21:35;;;;;;;2.33;1.70;;;10.30;98.00;;;;;;5034107;28;20454;-66
2023/04/29 04:24:02;;;;;;;2.67;1.50;;;10.20;98.00;;;;;;5034217;28;20496;-66
2023/04/29 04:26:29;;;;;;;3.13;1.60;;;10.10;98.00;;;;;;5034003;28;21067;-66
2023/04/29 04:28:56;;;;;;;2.30;1.87;;;10.10;98.00;;;;;;5034144;28;20458;-66
2023/04/29 04:31:24;;;;;;;1.60;1.40;;;10.10;98.00;;;;;;5034020;28;20535;-66
2023/04/29 04:33:52;;;;;;;2.60;1.70;;;10.00;98.00;;;;;;5034050;28;20455;-66
2023/04/29 04:36:19;;;;;;;2.13;1.80;;;10.20;98.00;;;;;;5032660;28;20469;-66
2023/04/29 04:38:47;;;;;;;2.30;1.60;;;10.10;98.00;;;;;;5034177;28;20452;-66
2023/04/29 04:41:14;;;;;;;2.03;1.60;;;10.20;98.00;;;;;;5032722;28;20972;-66
2023/04/29 04:43:41;;;;;;;1.60;1.57;;;10.20;98.00;;;;;;5034211;28;20836;-66
2023/04/29 04:46:11;;;;;;;3.30;2.00;;;10.30;98.00;;;;;;5033915;28;20460;-66
2023/04/29 04:48:40;;;;;;;1.67;1.50;;;10.50;98.00;;;;;;5034269;28;20465;-66
2023/04/29 04:51:11;;;;;;;1.90;1.40;;;10.60;98.00;;;;;;5034114;28;20486;-66
2023/04/29 04:53:38;;;;;;;1.67;1.30;;;10.60;98.00;;;;;;5032568;28;20957;-66
2023/04/29 04:56:06;;;;;;;1.90;1.60;;;10.60;98.00;;;;;;5033796;28;20457;-66
2023/04/29 04:58:33;;;;;;;1.80;1.40;;;10.60;98.00;;;;;;5033516;28;20543;-66
2023/04/29 05:01:00;;;;;;;1.50;1.30;;;10.70;98.00;;;;;;5033343;28;20452;-66
2023/04/29 05:03:28;;;;;;;1.57;1.40;;;10.70;98.00;;;;;;5033494;28;20887;-66
2023/04/29 05:05:57;;;;;;;1.70;1.40;;;10.80;98.00;;;;;;5033498;28;20464;-66
2023/04/29 05:08:24;;;;;;;1.70;1.53;;;10.90;98.00;;;;;;5033179;28;20460;-66
2023/04/29 05:10:51;;;;;;;1.40;1.20;;;11.10;98.00;;;;;;5033333;28;20477;-66
2023/04/29 05:13:19;;;;;;;1.50;1.40;;;11.20;98.00;;;;;;5033040;28;20463;-66
2023/04/29 05:15:46;;;;;;;1.83;1.30;;;11.30;98.00;;;;;;5033099;28;20452;-66
2023/04/29 05:18:15;;;;;;;1.47;1.30;;;11.30;98.00;;;;;;5032980;28;20455;-66
2023/04/29 05:20:42;;;;;;;1.80;1.53;;;11.40;98.00;;;;;;5033086;28;20454;-66
2023/04/29 05:23:10;;;;;;;2.97;1.70;;;11.40;98.00;;;;;;5032141;28;20466;-66
2023/04/29 05:25:37;;;;;;;2.00;1.50;;;11.30;98.00;;;;;;5032896;28;20958;-65
2023/04/29 05:28:05;;;;;;;2.43;1.50;;;11.20;98.00;;;;;;5033120;28;20504;-66
2023/04/29 05:30:32;;;;;;;2.00;1.80;;;11.20;98.00;;;;;;5032918;28;20465;-66
2023/04/29 05:32:59;;;;;;;1.50;1.30;;;11.10;98.00;;;;;;5032993;28;20468;-66
2023/04/29 05:35:26;;;;;;;1.80;1.50;;;11.10;98.00;;;;;;5032725;28;20498;-66
2023/04/29 05:37:53;;;;;;;1.50;1.50;;;11.20;98.00;;;;;;5032733;28;20452;-66
2023/04/29 05:40:22;;;;;;;2.50;1.90;;;11.20;98.00;;;;;;5031637;28;20451;-66
2023/04/29 05:42:51;;;;;;;2.60;1.77;;;11.30;98.00;;;;;;5033020;28;20539;-66
2023/04/29 05:45:18;;;;;;;2.80;1.70;;;11.40;98.00;;;;;;5031449;28;20496;-66
2023/04/29 05:47:45;;;;;;;2.53;1.50;;;11.50;98.00;;;;;;5032875;28;20466;-66
2023/04/29 05:50:12;;;;;;;1.50;1.50;;;11.50;98.00;;;;;;5032904;28;21027;-66
2023/04/29 05:52:40;;;;;;;1.70;1.37;;;11.60;98.00;;;;;;5031325;28;20455;-66
2023/04/29 05:55:07;;;;;;;2.43;1.60;;;11.60;98.00;;;;;;5032559;28;20450;-65
2023/04/29 05:57:36;;;;;;;1.90;1.60;;;11.70;98.00;;;;;;5032212;28;20519;-65
2023/04/29 06:00:05;;;;;;;3.10;1.70;;;11.70;98.00;;;;;;5032626;28;20476;-66
2023/04/29 06:02:33;;;;;;;2.63;2.13;;;11.80;98.00;;;;;;5032183;28;20462;-63
2023/04/29 06:05:00;;;;;;;3.93;1.90;;;12.00;98.00;;;;;;5032241;28;20572;-63
2023/04/29 06:07:27;;;;;;;4.10;2.40;;;12.10;98.00;;;;;;5032196;28;20521;-63
2023/04/29 06:09:55;;;;;;;2.67;2.00;;;12.10;98.00;;;;;;5032623;28;20990;-63
2023/04/29 06:12:22;;;;;;;2.30;1.87;;;12.30;98.00;;;;;;5032125;28;20460;-63
2023/04/29 06:14:51;;;;;;;3.50;2.00;;;12.40;98.00;;;;;;5031854;28;20471;-63
2023/04/29 06:17:18;;;;;;;2.10;1.73;;;12.60;98.00;;;;;;5031972;28;20471;-63
2023/04/29 06:19:45;;;;;;;8.00;4.00;;;12.60;98.00;;;;;;5031935;28;20462;-63
2023/04/29 06:22:12;;;;;;;2.97;2.40;;;12.70;98.00;;;;;;5032087;28;20867;-63
2023/04/29 06:24:39;;;;;;;3.90;2.53;;;12.70;98.00;;;;;;5031856;28;20573;-63
2023/04/29 06:27:06;;;;;;;3.00;2.20;;;12.60;98.00;;;;;;5032033;28;20489;-63
2023/04/29 06:29:33;;;;;;;4.47;3.10;;;12.60;98.00;;;;;;5031893;28;20459;-64
2023/04/29 06:32:09;;;;;;;4.97;2.80;;;12.60;98.00;;;;;;5032070;28;20488;-63
2023/04/29 06:34:38;;;;;;;5.70;2.70;;;12.60;98.00;;;;;;5031416;28;20464;-63
2023/04/29 06:37:05;;;;;;;4.93;2.90;;;12.60;98.00;;;;;;5031946;28;20913;-63
2023/04/29 06:39:32;;;;;;;5.03;2.77;;;12.70;98.00;;;;;;5032174;28;20547;-63
2023/04/29 06:41:59;;;;;;;4.23;2.83;;;12.80;98.00;;;;;;5031887;28;20917;-63
2023/04/29 06:44:28;;;;;;;5.07;2.80;;;12.80;98.00;;;;;;5032083;28;20496;-63
2023/04/29 06:46:55;;;;;;;4.80;3.10;;;12.80;98.00;;;;;;5031954;28;20544;-63
2023/04/29 06:49:24;;;;;;;4.83;3.00;;;12.90;98.00;;;;;;5031980;28;20456;-63
2023/04/29 06:51:51;;;;;;;6.03;2.97;;;13.00;98.00;;;;;;5030407;28;20980;-63
2023/04/29 06:54:18;;;;;;;4.93;2.80;;;13.00;98.00;;;;;;5031869;28;20456;-63
2023/04/29 06:56:46;;;;;;;4.47;2.90;;;13.20;98.00;;;;;;5031703;28;20456;-63
2023/04/29 06:59:14;;;;;;;4.83;2.90;;;13.30;98.00;;;;;;5047465;28;20501;-63
2023/04/29 07:01:41;;;;;;;5.83;3.27;;;13.50;98.00;;;;;;5051817;28;20515;-63
2023/04/29 07:04:08;;;;;;;5.07;3.10;;;13.60;98.00;;;;;;5051810;28;20483;-63
2023/04/29 07:06:37;;;;;;;4.60;2.93;;;13.60;98.00;;;;;;5051617;28;20459;-63
2023/04/29 07:09:04;;;;;;;4.17;2.97;;;13.70;98.00;;;;;;5051517;28;20462;-63
2023/04/29 07:11:31;;;;;;;6.20;3.07;;;13.70;98.00;;;;;;5050142;28;20462;-63
2023/04/29 07:13:59;;;;;;;5.30;3.33;;;13.70;98.00;;;;;;5051458;28;20464;-63
2023/04/29 07:16:27;;;;;;;6.70;3.43;;;13.70;98.00;;;;;;5051291;28;20920;-64
2023/04/29 07:18:54;;;;;;;4.50;3.00;;;13.80;98.00;;;;;;5050164;28;20459;-63
2023/04/29 07:21:21;;;;;;;6.27;3.37;;;13.90;98.00;;;;;;5051350;28;20942;-63
2023/04/29 07:23:50;;;;;;;6.37;3.10;;;14.00;98.00;;;;;;5051402;28;20488;-63
2023/04/29 07:26:18;;;;;;;5.63;3.13;;;14.10;98.00;;;;;;5051538;28;20457;-63
2023/04/29 07:28:45;;;;;;;4.73;3.03;;;14.10;98.00;;;;;;5051368;28;20841;-63
2023/04/29 07:31:14;;;;;;;5.23;2.30;;;14.10;98.00;;;;;;5051183;28;20460;-63
2023/04/29 07:33:41;;;;;;;3.80;2.60;;;14.10;98.00;;;;;;5051616;28;20490;-63
2023/04/29 07:36:08;;;;;;;3.83;2.97;;;14.20;98.00;;;;;;5051327;28;20527;-63
2023/04/29 07:38:35;;;;;;;4.33;2.70;;;14.00;98.00;;;;;;5051337;28;20863;-64
2023/04/29 07:41:04;;;;;;;4.87;2.53;;;14.00;98.00;;;;;;5051633;28;20461;-63
2023/04/29 07:43:31;;;;;;;4.50;2.70;;;14.00;98.00;;;;;;5051278;28;20461;-64
2023/04/29 07:45:58;;;;;;;6.53;3.20;;;14.00;98.00;;;;;;5051361;28;20488;-64
2023/04/29 07:48:26;;;;;;;3.07;2.20;;;14.10;98.00;;;;;;5054855;28;20528;-64
2023/04/29 07:50:53;;;;;;;4.90;2.47;;;14.10;98.00;;;;;;5054284;28;20457;-63
2023/04/29 07:53:20;;;;;;;4.63;2.50;;;14.40;98.00;;;;;;5054552;28;20458;-63
2023/04/29 07:55:47;;;;;;;2.97;2.23;;;14.60;98.00;;;;;;5049181;28;20989;-64
2023/04/29 07:58:16;;;;;;;4.67;2.37;;;14.80;98.00;;;;;;5052910;28;21031;-63
2023/04/29 08:00:43;;;;;;;3.63;2.60;;;14.70;98.00;;;;;;5054120;28;20467;-63
2023/04/29 08:03:11;;;;;;;3.37;2.43;;;14.80;98.00;;;;;;5053764;28;20518;-64
2023/04/29 08:05:38;;;;;;;4.00;2.50;;;14.80;98.00;;;;;;5053119;28;20524;-63
2023/04/29 08:08:05;;;;;;;4.87;2.33;;;14.80;98.00;;;;;;5053635;28;20884;-64
2023/04/29 08:10:35;;;;;;;5.13;2.73;;;14.80;98.00;;;;;;5054000;28;20465;-64
2023/04/29 08:13:02;;;;;;;3.50;2.40;;;14.80;98.00;;;;;;5054082;28;20944;-63
2023/04/29 08:15:31;;;;;;;2.90;2.20;;;14.90;98.00;;;;;;5054019;28;20464;-64
2023/04/29 08:17:58;;;;;;;3.83;2.70;;;15.00;98.00;;;;;;5053985;28;20468;-63
2023/04/29 08:20:25;;;;;;;4.60;2.83;;;15.00;98.00;;;;;;5054105;28;20480;-64
2023/04/29 08:22:52;;;;;;;3.73;2.30;;;15.10;98.00;;;;;;5054060;28;20769;-63
2023/04/29 08:25:19;;;;;;;2.97;2.30;;;15.20;98.00;;;;;;5053801;28;20493;-63
2023/04/29 08:27:46;;;;;;;4.77;2.80;;;15.10;98.00;;;;;;5053926;28;20457;-63
2023/04/29 08:30:13;;;;;;;3.47;2.50;;;15.10;98.00;;;;;;5053539;28;20468;-63
2023/04/29 08:32:48;;;;;;;4.10;2.60;;;15.20;98.00;;;;;;5053784;28;20452;-63
2023/04/29 08:35:16;;;;;;;6.27;2.67;;;15.10;98.00;;;;;;5052682;28;20465;-63
2023/04/29 08:37:43;;;;;;;3.07;2.20;;;15.10;98.00;;;;;;5054174;28;20463;-63
2023/04/29 08:40:13;;;;;;;5.50;2.93;;;15.10;98.00;;;;;;5053983;28;20867;-63
2023/04/29 08:42:40;;;;;;;2.33;2.10;;;15.10;98.00;;;;;;5053813;28;20476;-63
2023/04/29 08:45:08;;;;;;;3.60;2.33;;;15.10;98.00;;;;;;5052806;28;20493;-64
2023/04/29 08:47:36;;;;;;;3.90;2.30;;;15.20;98.00;;;;;;5041327;28;20468;-63
2023/04/29 08:50:06;;;;;;;3.00;2.23;;;15.30;98.00;;;;;;5033480;28;20466;-63
2023/04/29 08:52:34;;;;;;;4.17;2.63;;;15.30;98.00;;;;;;5033547;28;20859;-63
2023/04/29 08:55:02;;;;;;;3.50;2.37;;;15.40;98.00;;;;;;5033344;28;20458;-63
2023/04/29 08:57:31;;;;;;;3.83;2.30;;;15.50;98.00;;;;;;5033283;28;20485;-64
2023/04/29 09:00:01;;;;;;;2.73;2.07;;;15.40;98.00;;;;;;5033354;28;20536;-63
2023/04/29 09:02:28;;;;;;;3.87;2.30;;;15.50;98.00;;;;;;5033502;28;20545;-63
2023/04/29 09:06:48;;;;;;;4.97;2.50;;;15.40;98.00;;;;;;5150926;27;20551;-62
2023/04/29 09:09:16;;;;;;;3.17;2.17;;;15.40;98.00;;;;;;5130422;28;20464;-62
2023/04/29 09:11:43;;;;;;;2.73;2.00;;;15.50;98.00;;;;;;5130239;28;20457;-62
2023/04/29 09:14:10;;;;;;;3.37;2.27;;;15.50;98.00;;;;;;5129027;28;20465;-62
2023/04/29 09:16:37;;;;;;;2.60;2.03;;;15.40;98.00;;;;;;5130218;28;20452;-62
2023/04/29 09:19:04;;;;;;;3.50;2.30;;;15.40;98.00;;;;;;5130247;27;21000;-62
2023/04/29 09:21:32;;;;;;;2.43;1.87;;;15.40;98.00;;;;;;5130298;27;20461;-61
2023/04/29 09:24:03;;;;;;;4.27;2.20;;;15.50;98.00;;;;;;5130223;28;20537;-62
2023/04/29 09:26:41;;;;;;;4.53;2.40;;;15.70;98.00;;;;;;5128779;28;20843;-62
2023/04/29 09:29:10;;;;;;;3.20;2.10;;;15.80;98.00;;;;;;5130047;28;20517;-62
2023/04/29 09:31:39;;;;;;;3.30;2.30;;;15.90;98.00;;;;;;5130119;28;20446;-62
2023/04/29 09:34:06;;;;;;;2.53;2.07;;;15.90;98.00;;;;;;5129934;28;20518;-62
2023/04/29 09:36:38;;;;;;;4.77;2.30;;;16.10;98.00;;;;;;5129772;28;20466;-62
2023/04/29 09:39:10;;;;;;;3.40;2.20;;;16.30;98.00;;;;;;5129725;28;20454;-62
2023/04/29 09:41:43;;;;;;;4.07;2.87;;;16.40;98.00;;;;;;5129753;28;20461;-62
2023/04/29 09:44:11;;;;;;;3.47;2.50;;;16.40;98.00;;;;;;5129647;27;20457;-62
2023/04/29 09:46:38;;;;;;;3.37;2.40;;;16.50;98.00;;;;;;5129418;27;20572;-62
2023/04/29 09:49:23;;;;;;;4.80;2.40;;;16.50;98.00;;;;;;5128163;28;20971;-62
2023/04/29 09:51:54;;;;;;;3.50;2.40;;;16.60;98.00;;;;;;5129425;28;20482;-62
2023/04/29 09:54:27;;;;;;;4.60;2.50;;;16.60;98.00;;;;;;5129471;28;20455;-62
2023/04/29 09:56:54;;;;;;;4.30;2.47;;;16.80;98.00;;;;;;5129346;28;20449;-62
2023/04/29 09:59:23;;;;;;;4.07;2.50;;;16.70;98.00;;;;;;5129481;28;20890;-62
2023/04/29 10:01:52;;;;;;;5.00;2.47;;;16.70;98.00;;;;;;5129182;28;20458;-62
2023/04/29 10:04:22;;;;;;;3.77;2.40;;;16.80;98.00;;;;;;5129316;28;20450;-62
2023/04/29 10:06:50;;;;;;;3.07;2.07;;;;;;;;;;5129088;28;21001;-62
2023/04/29 10:09:18;;;;;;;3.20;2.40;;;17.10;98.00;;;;;;5129063;28;20828;-62
2023/04/29 10:11:49;;;;;;;3.23;2.50;;;17.30;98.00;;;;;;5128817;28;20459;-62
2023/04/29 10:14:17;;;;;;;3.73;2.60;;;17.40;98.00;;;;;;5128801;28;20545;-62
2023/04/29 10:19:15;;;;;;;4.33;2.57;;;17.20;98.00;;;;;;5092546;28;21008;-63
2023/04/29 10:21:42;;;;;;;3.83;2.50;;;17.10;98.00;;;;;;5094215;28;20467;-64
2023/04/29 10:24:12;;;;;;;3.70;2.50;;;17.10;98.00;;;;;;5094161;28;20968;-64
2023/04/29 10:26:40;;;;;;;3.77;2.50;;;17.30;98.00;;;;;;5094180;28;20566;-63
2023/04/29 10:29:09;;;;;;;3.30;2.40;;;17.40;98.00;;;;;;5094215;28;20483;-64
2023/04/29 10:31:37;;;;;;;3.13;2.30;;;17.30;98.00;;;;;;5093949;28;20459;-63
2023/04/29 10:34:04;;;;;;;4.03;2.70;;;17.40;98.00;;;;;;5093921;28;20467;-64
2023/04/29 10:36:33;;;;;;;3.50;2.30;;;17.50;98.00;;;;;;5075782;28;20454;-64
2023/04/29 10:39:04;;;;;;;3.10;2.43;;;17.60;98.00;;;;;;5093757;28;20456;-64
2023/04/29 10:41:37;;;;;;;3.97;2.43;;;17.50;98.00;;;;;;5093655;28;20651;-64
2023/04/29 10:44:05;;;;;;;4.87;3.03;;;17.30;98.00;;;;;;5093694;28;21048;-63
2023/04/29 10:46:33;;;;;;;4.43;3.00;;;17.20;98.00;;;;;;5093359;28;20999;-64
2023/04/29 10:49:02;;;;;;;5.50;2.93;;;17.20;98.00;;;;;;5093599;28;20619;-64
2023/04/29 10:51:32;;;;;;;3.87;2.50;;;17.20;98.00;;;;;;5093370;28;20467;-64
2023/04/29 10:54:00;;;;;;;4.33;2.70;;;17.10;98.00;;;;;;5093538;28;20448;-64
2023/04/29 10:56:42;;;;;;;4.17;2.47;;;17.20;98.00;;;;;;5093187;28;20492;-64
2023/04/29 10:59:16;;;;;;;3.03;2.10;;;17.30;98.00;;;;;;5093162;28;20532;-64
2023/04/29 11:01:59;;;;;;;3.00;2.10;;;17.40;98.00;;;;;;5092265;28;20458;-64
2023/04/29 11:04:27;;;;;;;3.00;2.20;;;17.50;98.00;;;;;;5093265;28;20937;-63
2023/04/29 11:06:55;;;;;;;4.00;2.57;;;17.50;98.00;;;;;;5093359;28;20480;-64
2023/04/29 11:09:26;;;;;;;3.30;2.27;;;17.50;98.00;;;;;;5093173;28;20455;-64
2023/04/29 11:12:01;;;;;;;3.80;2.57;;;17.70;98.00;;;;;;5093173;28;20463;-64
2023/04/29 11:14:36;;;;;;;4.07;2.60;;;17.80;98.00;;;;;;5093205;28;20459;-64
2023/04/29 11:17:08;;;;;;;3.53;2.20;;;17.80;98.00;;;;;;5092876;28;20462;-64
2023/04/29 11:19:36;;;;;;;4.27;2.70;;;17.90;98.00;;;;;;5093090;28;20459;-64
2023/04/29 11:22:14;;;;;;;4.00;2.40;;;17.90;98.00;;;;;;5093063;28;20448;-64
2023/04/29 11:24:53;;;;;;;3.93;2.40;;;18.00;98.00;;;;;;5093327;28;20551;-64
2023/04/29 11:27:25;;;;;;;4.30;2.23;;;18.00;98.00;;;;;;5092716;28;20502;-64
2023/04/29 11:29:57;;;;;;;4.23;2.60;;;17.90;98.00;;;;;;5091994;28;20456;-64
2023/04/29 11:32:25;;;;;;;4.53;2.30;;;17.90;98.00;;;;;;5089366;28;20457;-65
2023/04/29 11:34:52;;;;;;;4.63;2.50;;;17.80;98.00;;;;;;5082568;28;20537;-64
2023/04/29 11:37:21;;;;;;;11.10;2.63;;;17.90;98.00;;;;;;5091253;28;20550;-64
2023/04/29 11:39:49;;;;;;;4.07;2.10;;;18.10;98.00;;;;;;5092654;28;20549;-64
2023/04/29 11:42:20;;;;;;;4.43;2.43;;;18.40;98.00;;;;;;5092434;28;20954;-64
2023/04/29 11:44:51;;;;;;;2.93;2.20;;;18.50;98.00;;;;;;5091300;28;20456;-64
2023/04/29 11:47:20;;;;;;;5.40;2.67;;;18.50;98.00;;;;;;5092265;28;20504;-64
2023/04/29 11:49:51;;;;;;;4.57;2.73;;;18.40;98.00;;;;;;5092434;28;20452;-65
2023/04/29 11:52:18;;;;;;;3.90;2.57;;;18.30;98.00;;;;;;5092080;28;20550;-64
2023/04/29 11:54:47;;;;;;;4.73;2.87;;;18.20;98.00;;;;;;5092194;28;20456;-63
2023/04/29 11:57:14;;;;;;;4.73;2.80;;;18.10;98.00;;;;;;5092066;28;20452;-64
2023/04/29 11:59:42;;;;;;;3.33;2.20;;;18.00;98.00;;;;;;5091029;28;20459;-64
2023/04/29 12:02:13;;;;;;;4.60;2.63;;;18.30;98.00;;;;;;5092212;28;20609;-64
2023/04/29 12:04:46;;;;;;;4.10;2.90;;;18.30;98.00;;;;;;5092200;28;20591;-64
2023/04/29 12:07:16;;;;;;;4.97;2.87;;;18.30;98.00;;;;;;5091934;28;20566;-64
2023/04/29 12:09:44;;;;;;;3.83;2.60;;;18.80;98.00;;;;;;5086735;28;20461;-64
2023/04/29 12:12:19;;;;;;;6.63;3.40;;;19.50;98.00;;;;;;5071313;28;20456;-64
2023/04/29 12:14:47;;;;;;;3.43;2.53;;;19.40;98.00;;;;;;5070633;28;20886;-63
2023/04/29 12:17:14;;;;;;;3.80;2.67;;;19.30;98.00;;;;;;5071284;28;20480;-64
2023/04/29 12:19:42;;;;;;;5.83;3.23;;;19.10;98.00;;;;;;5071680;28;20825;-65
2023/04/29 12:22:11;;;;;;;5.30;3.20;;;19.50;98.00;;;;;;5071368;28;20460;-64
2023/04/29 12:24:40;;;;;;;3.23;2.33;;;20.10;98.00;;;;;;5071499;28;20453;-64
2023/04/29 12:27:09;;;;;;;3.07;2.40;;;20.40;98.00;;;;;;5071215;28;20836;-64
2023/04/29 12:29:37;;;;;;;3.70;2.70;;;21.00;98.00;;;;;;5071374;28;20484;-64
2023/04/29 12:32:04;;;;;;;5.13;2.83;;;21.40;98.00;;;;;;5070971;28;20460;-64
2023/04/29 12:34:33;;;;;;;4.00;2.80;;;21.60;98.00;;;;;;5071338;28;20476;-65
2023/04/29 12:37:00;;;;;;;3.33;2.40;;;21.30;98.00;;;;;;5071132;28;20461;-64
2023/04/29 12:39:28;;;;;;;5.70;3.37;;;21.00;98.00;;;;;;5071230;28;20823;-65
2023/04/29 12:41:59;;;;;;;5.23;2.90;;;20.60;98.00;;;;;;5071401;28;20627;-64
2023/04/29 12:44:26;;;;;;;3.20;2.40;;;20.40;98.00;;;;;;5071244;28;20942;-64
2023/04/29 12:46:54;;;;;;;3.90;2.70;;;20.10;98.00;;;;;;5070993;28;20481;-64
2023/04/29 12:49:24;;;;;;;4.90;2.80;;;19.90;98.00;;;;;;5071333;28;20961;-64
2023/04/29 12:51:51;;;;;;;4.47;3.03;;;19.60;98.00;;;;;;5071234;28;20460;-64
2023/04/29 12:54:18;;;;;;;4.50;2.80;;;19.50;98.00;;;;;;5070023;28;20599;-64
2023/04/29 12:56:46;;;;;;;4.83;2.83;;;19.30;98.00;;;;;;5071168;28;20994;-64
2023/04/29 12:59:16;;;;;;;3.93;2.63;;;19.10;98.00;;;;;;5071154;28;20445;-63